createdAt,value
2023-01-15T00:01:41.560Z,22.20
2023-01-15T00:04:08.723Z,22.15
2023-01-15T00:06:37.332Z,22.20
2023-01-15T00:09:04.564Z,22.15
2023-01-15T00:11:31.680Z,22.16
2023-01-15T00:14:00.662Z,22.17
2023-01-15T00:16:27.763Z,22.14
2023-01-15T00:18:56.980Z,21.92
2023-01-15T00:21:25.049Z,22.08
2023-01-15T00:23:52.508Z,22.10
2023-01-15T00:26:22.161Z,22.07
2023-01-15T00:28:49.240Z,22.01
2023-01-15T00:31:17.693Z,21.93
2023-01-15T00:33:44.784Z,21.97
2023-01-15T00:36:11.903Z,21.96
2023-01-15T00:38:38.984Z,21.98
2023-01-15T00:41:06.166Z,21.98
2023-01-15T00:43:33.295Z,21.98
2023-01-15T00:46:00.379Z,22.03
2023-01-15T00:48:28.781Z,22.10
2023-01-15T00:50:55.900Z,22.08
2023-01-15T00:53:23.014Z,22.10
2023-01-15T00:55:50.125Z,21.90
2023-01-15T00:58:17.220Z,22.08
2023-01-15T01:00:44.399Z,22.08
2023-01-15T01:03:11.550Z,22.04
2023-01-15T01:05:39.969Z,22.01
2023-01-15T01:08:07.045Z,22.01
2023-01-15T01:10:34.132Z,22.00
2023-01-15T01:13:01.223Z,22.01
2023-01-15T01:15:28.309Z,22.00
2023-01-15T01:17:55.389Z,21.93
2023-01-15T01:20:23.480Z,21.88
2023-01-15T01:22:51.942Z,21.84
2023-01-15T01:25:19.425Z,21.88
2023-01-15T01:27:47.278Z,21.85
2023-01-15T01:30:15.305Z,21.89
2023-01-15T01:32:44.604Z,21.91
2023-01-15T01:35:12.162Z,21.98
2023-01-15T01:37:39.229Z,21.96
2023-01-15T01:40:09.256Z,22.00
2023-01-15T01:42:36.608Z,22.00
2023-01-15T01:45:12.567Z,21.99
2023-01-15T01:47:40.152Z,21.96
2023-01-15T01:50:11.931Z,21.97
2023-01-15T01:52:43.827Z,21.95
2023-01-15T01:55:14.902Z,21.95
2023-01-15T01:57:42.816Z,21.95
2023-01-15T02:03:26.320Z,21.91
2023-01-15T02:05:56.465Z,21.83
2023-01-15T02:08:24.015Z,21.84
2023-01-15T02:10:55.629Z,21.77
2023-01-15T02:13:32.060Z,21.76
2023-01-15T02:16:06.882Z,21.67
2023-01-15T02:18:40.527Z,21.71
2023-01-15T02:21:16.657Z,21.70
2023-01-15T02:24:09.680Z,21.79
2023-01-15T02:27:10.704Z,21.86
2023-01-15T02:29:54.463Z,21.89
2023-01-15T02:32:29.727Z,21.91
2023-01-15T02:35:01.820Z,21.89
2023-01-15T02:37:33.464Z,21.89
2023-01-15T02:40:03.595Z,21.86
2023-01-15T02:42:34.358Z,21.80
2023-01-15T02:45:03.963Z,21.84
2023-01-15T02:47:34.362Z,21.77
2023-01-15T02:50:05.868Z,21.81
2023-01-15T02:52:36.998Z,21.82
2023-01-15T02:55:07.808Z,21.81
2023-01-15T02:57:38.981Z,21.81
2023-01-15T03:00:10.881Z,21.68
2023-01-15T03:02:44.042Z,21.70
2023-01-15T03:05:18.059Z,21.59
2023-01-15T03:07:50.783Z,21.68
2023-01-15T03:10:19.309Z,21.68
2023-01-15T03:12:50.660Z,21.67
2023-01-15T03:15:20.696Z,21.67
2023-01-15T03:17:54.356Z,21.77
2023-01-15T03:20:25.510Z,21.86
2023-01-15T03:22:59.466Z,22.15
2023-01-15T03:25:34.067Z,22.32
2023-01-15T03:28:04.148Z,22.58
2023-01-15T03:30:32.939Z,22.73
2023-01-15T03:33:00.147Z,22.78
2023-01-15T03:35:45.179Z,22.80
2023-01-15T03:38:13.539Z,22.73
2023-01-15T03:40:48.396Z,22.68
2023-01-15T03:43:20.989Z,22.65
2023-01-15T03:45:53.519Z,22.62
2023-01-15T03:48:26.657Z,22.59
2023-01-15T03:50:59.422Z,22.54
2023-01-15T03:53:31.851Z,22.58
2023-01-15T03:56:06.010Z,22.38
2023-01-15T03:58:38.378Z,22.45
2023-01-15T04:01:09.974Z,22.35
2023-01-15T04:03:37.791Z,22.30
2023-01-15T04:06:06.652Z,22.31
2023-01-15T04:08:37.864Z,22.34
2023-01-15T04:11:05.413Z,22.39
2023-01-15T04:13:33.906Z,22.36
2023-01-15T04:16:01.236Z,22.31
2023-01-15T04:18:28.367Z,22.25
2023-01-15T04:20:55.424Z,22.26
2023-01-15T04:23:23.145Z,22.22
2023-01-15T04:25:50.227Z,22.16
2023-01-15T04:28:17.348Z,22.20
2023-01-15T04:30:45.797Z,22.18
2023-01-15T04:33:12.911Z,22.17
2023-01-15T04:35:40.018Z,22.17
2023-01-15T04:38:07.140Z,22.13
2023-01-15T04:40:34.224Z,22.15
2023-01-15T04:43:01.579Z,22.03
2023-01-15T04:45:28.742Z,22.11
2023-01-15T04:47:57.144Z,22.13
2023-01-15T04:50:24.203Z,22.06
2023-01-15T04:52:51.297Z,22.09
2023-01-15T04:55:18.404Z,22.10
2023-01-15T04:57:45.460Z,22.11
2023-01-15T05:00:13.140Z,22.21
2023-01-15T05:02:40.254Z,22.21
2023-01-15T05:05:09.329Z,22.25
2023-01-15T05:07:36.471Z,22.28
2023-01-15T05:10:03.958Z,22.29
2023-01-15T05:12:31.060Z,22.38
2023-01-15T05:14:58.163Z,22.37
2023-01-15T05:17:25.251Z,22.36
2023-01-15T05:19:52.311Z,22.37
2023-01-15T05:22:20.752Z,22.40
2023-01-15T05:24:47.823Z,22.40
2023-01-15T05:27:14.953Z,22.43
2023-01-15T05:29:42.048Z,22.40
2023-01-15T05:32:09.724Z,22.43
2023-01-15T05:34:36.953Z,22.50
2023-01-15T05:37:04.067Z,22.62
2023-01-15T05:39:32.451Z,22.64
2023-01-15T05:41:59.533Z,22.72
2023-01-15T05:44:28.965Z,22.85
2023-01-15T05:46:59.282Z,22.88
2023-01-15T05:49:27.672Z,22.90
2023-01-15T05:51:55.187Z,22.96
2023-01-15T05:54:24.714Z,22.92
2023-01-15T05:56:53.633Z,22.90
2023-01-15T05:59:22.407Z,22.81
2023-01-15T06:01:49.581Z,22.80
2023-01-15T06:04:17.364Z,22.78
2023-01-15T06:06:44.466Z,22.76
2023-01-15T06:09:11.539Z,22.70
2023-01-15T06:11:38.650Z,22.69
2023-01-15T06:14:07.785Z,22.47
2023-01-15T06:16:34.886Z,22.45
2023-01-15T06:19:03.875Z,22.38
2023-01-15T06:21:32.040Z,22.41
2023-01-15T06:23:59.349Z,22.37
2023-01-15T06:26:26.931Z,22.29
2023-01-15T06:28:54.043Z,22.20
2023-01-15T06:31:23.702Z,22.25
2023-01-15T06:33:50.808Z,22.27
2023-01-15T06:36:19.924Z,22.30
2023-01-15T06:38:47.345Z,22.28
2023-01-15T06:41:16.659Z,22.29
2023-01-15T06:43:43.753Z,22.37
2023-01-15T06:46:10.996Z,22.36
2023-01-15T06:48:39.452Z,22.36
2023-01-15T06:51:06.568Z,22.47
2023-01-15T06:53:33.648Z,22.25
2023-01-15T06:56:01.169Z,22.10
2023-01-15T06:58:28.260Z,22.59
2023-01-15T07:00:55.432Z,22.54
2023-01-15T07:03:23.145Z,22.05
2023-01-15T07:05:51.599Z,22.45
2023-01-15T07:08:18.684Z,23.00
2023-01-15T07:10:45.774Z,23.20
2023-01-15T07:13:12.865Z,23.24
2023-01-15T07:15:40.023Z,23.26
2023-01-15T07:18:07.259Z,23.35
2023-01-15T07:20:34.562Z,23.33
2023-01-15T07:23:03.029Z,23.24
2023-01-15T07:25:30.107Z,23.19
2023-01-15T07:27:57.244Z,23.23
2023-01-15T07:30:24.371Z,23.29
2023-01-15T07:32:51.439Z,23.27
2023-01-15T07:35:18.540Z,23.22
2023-01-15T07:37:45.606Z,23.16
2023-01-15T07:40:14.200Z,23.07
2023-01-15T07:42:41.304Z,23.09
2023-01-15T07:45:09.500Z,23.04
2023-01-15T07:47:36.576Z,23.06
2023-01-15T07:50:05.231Z,23.01
2023-01-15T07:52:32.334Z,22.97
2023-01-15T07:54:59.436Z,22.99
2023-01-15T07:57:27.901Z,22.96
2023-01-15T07:59:54.983Z,22.93
2023-01-15T08:02:22.054Z,22.84
2023-01-15T08:04:49.148Z,22.64
2023-01-15T08:07:16.692Z,22.71
2023-01-15T08:09:44.329Z,22.66
2023-01-15T08:12:12.108Z,22.67
2023-01-15T08:14:40.518Z,22.69
2023-01-15T08:17:07.617Z,22.68
2023-01-15T08:19:34.793Z,22.78
2023-01-15T08:22:01.868Z,22.75
2023-01-15T08:24:29.189Z,22.80
2023-01-15T08:26:56.601Z,22.79
2023-01-15T08:29:23.699Z,22.78
2023-01-15T08:31:52.169Z,22.79
2023-01-15T08:34:19.464Z,22.97
2023-01-15T08:36:46.670Z,23.04
2023-01-15T08:39:13.769Z,23.29
2023-01-15T08:41:40.873Z,23.33
2023-01-15T08:44:09.311Z,23.39
2023-01-15T08:46:36.506Z,23.44
2023-01-15T08:49:06.565Z,23.33
2023-01-15T08:51:33.719Z,23.25
2023-01-15T08:54:00.786Z,23.08
2023-01-15T08:56:27.902Z,23.02
2023-01-15T08:58:55.130Z,22.86
2023-01-15T09:01:22.301Z,22.84
2023-01-15T09:03:49.612Z,22.83
2023-01-15T09:06:18.021Z,22.84
2023-01-15T09:08:45.093Z,22.96
2023-01-15T09:11:12.207Z,23.07
2023-01-15T09:13:39.553Z,22.44
2023-01-15T09:16:07.712Z,21.31
2023-01-15T09:18:34.934Z,21.15
2023-01-15T09:21:01.996Z,20.60
2023-01-15T09:23:30.427Z,20.56
2023-01-15T09:25:59.299Z,21.16
2023-01-15T09:28:27.275Z,21.50
2023-01-15T09:30:54.389Z,21.93
2023-01-15T09:33:21.916Z,22.14
2023-01-15T09:35:49.106Z,22.36
2023-01-15T09:38:17.685Z,22.50
2023-01-15T09:40:51.091Z,22.62
2023-01-15T09:43:29.421Z,22.67
2023-01-15T09:46:01.826Z,22.78
2023-01-15T09:48:42.323Z,22.92
2023-01-15T09:51:18.695Z,23.42
2023-01-15T09:54:05.976Z,23.76
2023-01-15T09:56:37.449Z,23.59
2023-01-15T09:59:13.964Z,23.52
2023-01-15T10:01:42.773Z,23.45
2023-01-15T10:04:16.420Z,23.43
2023-01-15T10:06:51.623Z,23.38
2023-01-15T10:09:25.447Z,23.38
2023-01-15T10:12:02.281Z,23.45
2023-01-15T10:14:37.495Z,23.32
2023-01-15T10:17:17.881Z,23.36
2023-01-15T10:19:45.201Z,23.34
2023-01-15T10:22:20.158Z,23.35
2023-01-15T10:24:55.715Z,23.36
2023-01-15T10:27:27.047Z,23.28
2023-01-15T10:29:59.947Z,23.28
2023-01-15T10:32:36.558Z,23.25
2023-01-15T10:35:16.904Z,23.23
2023-01-15T10:37:48.667Z,23.21
2023-01-15T10:40:31.004Z,23.15
2023-01-15T10:43:06.406Z,23.09
2023-01-15T10:45:40.353Z,23.08
2023-01-15T10:48:16.020Z,23.09
2023-01-15T10:50:43.481Z,23.09
2023-01-15T10:53:17.713Z,23.10
2023-01-15T10:55:47.142Z,23.12
2023-01-15T10:58:25.924Z,23.04
2023-01-15T11:00:58.440Z,23.09
2023-01-15T11:03:35.158Z,23.08
2023-01-15T11:06:02.329Z,23.02
2023-01-15T11:11:22.069Z,23.11
2023-01-15T11:13:54.702Z,23.12
2023-01-15T11:16:26.364Z,23.10
2023-01-15T11:18:53.890Z,23.13
2023-01-15T11:21:23.218Z,23.12
2023-01-15T11:23:51.697Z,23.00
2023-01-15T11:26:22.792Z,22.89
2023-01-15T11:28:50.179Z,22.81
2023-01-15T11:31:18.687Z,22.80
2023-01-15T11:33:58.503Z,22.76
2023-01-15T11:36:27.506Z,22.74
2023-01-15T11:38:55.081Z,22.73
2023-01-15T11:41:27.093Z,22.80
2023-01-15T11:43:55.223Z,22.75
2023-01-15T11:46:28.576Z,22.86
2023-01-15T11:48:55.661Z,22.86
2023-01-15T11:51:22.810Z,22.87
2023-01-15T11:53:53.443Z,22.91
2023-01-15T11:56:24.739Z,22.90
2023-01-15T11:58:55.022Z,22.94
2023-01-15T12:01:24.635Z,22.94
2023-01-15T12:03:53.606Z,22.87
2023-01-15T12:06:21.999Z,22.86
2023-01-15T12:08:51.223Z,22.84
2023-01-15T12:11:44.076Z,22.86
2023-01-15T12:14:36.675Z,22.78
2023-01-15T12:17:17.406Z,22.72
2023-01-15T12:19:57.425Z,22.70
2023-01-15T12:22:39.707Z,22.72
2023-01-15T12:25:29.238Z,22.68
2023-01-15T12:28:01.882Z,22.68
2023-01-15T12:30:35.940Z,22.71
2023-01-15T12:33:13.925Z,22.73
2023-01-15T12:35:47.472Z,22.67
2023-01-15T12:38:20.871Z,22.71
2023-01-15T12:40:52.081Z,22.73
2023-01-15T12:43:23.795Z,22.61
2023-01-15T12:45:54.450Z,22.70
2023-01-15T12:48:29.890Z,22.69
2023-01-15T12:51:01.020Z,22.62
2023-01-15T12:53:36.787Z,22.64
2023-01-15T12:56:12.589Z,22.63
2023-01-15T12:58:44.753Z,22.60
2023-01-15T13:01:20.436Z,22.54
2023-01-15T13:03:58.830Z,22.51
2023-01-15T13:06:28.066Z,22.47
2023-01-15T13:09:00.321Z,22.36
2023-01-15T13:11:27.442Z,22.40
2023-01-15T13:13:54.516Z,22.39
2023-01-15T13:16:28.466Z,22.41
2023-01-15T13:19:14.755Z,22.40
2023-01-15T13:21:45.451Z,22.46
2023-01-15T13:24:27.844Z,22.49
2023-01-15T13:27:09.585Z,22.49
2023-01-15T13:29:46.659Z,22.48
2023-01-15T13:32:18.140Z,22.48
2023-01-15T13:34:49.615Z,22.47
2023-01-15T13:37:26.268Z,22.49
2023-01-15T13:39:57.570Z,22.41
2023-01-15T13:42:27.594Z,22.46
2023-01-15T13:44:54.694Z,22.45
2023-01-15T13:47:25.517Z,22.42
2023-01-15T13:49:55.737Z,22.37
2023-01-15T13:52:28.216Z,22.41
2023-01-15T13:54:58.670Z,22.35
2023-01-15T13:57:33.683Z,22.25
2023-01-15T14:00:01.639Z,22.20
2023-01-15T14:02:30.748Z,22.22
2023-01-15T14:04:58.473Z,22.22
2023-01-15T14:07:34.895Z,22.18
2023-01-15T14:10:24.414Z,22.22
2023-01-15T14:13:07.837Z,22.30
2023-01-15T14:15:45.425Z,22.29
2023-01-15T14:18:44.148Z,22.30
2023-01-15T14:21:25.198Z,22.31
2023-01-15T14:24:16.333Z,22.27
2023-01-15T14:26:52.379Z,22.28
2023-01-15T14:29:43.172Z,22.27
2023-01-15T14:32:16.894Z,22.26
2023-01-15T14:34:44.203Z,22.25
2023-01-15T14:37:24.791Z,22.25
2023-01-15T14:39:55.384Z,22.21
2023-01-15T14:42:28.418Z,22.21
2023-01-15T14:44:59.333Z,22.11
2023-01-15T14:47:30.943Z,22.05
2023-01-15T14:50:24.610Z,22.02
2023-01-15T14:52:53.961Z,22.01
2023-01-15T14:55:23.211Z,22.00
2023-01-15T14:57:57.121Z,21.99
2023-01-15T15:00:30.075Z,21.92
2023-01-15T15:02:59.796Z,22.10
2023-01-15T15:05:29.690Z,22.13
2023-01-15T15:07:57.158Z,22.14
2023-01-15T15:10:31.268Z,22.17
2023-01-15T15:13:02.814Z,22.16
2023-01-15T15:15:38.795Z,22.15
2023-01-15T15:18:15.583Z,22.12
2023-01-15T15:20:50.085Z,22.06
2023-01-15T15:23:24.432Z,22.07
2023-01-15T15:25:57.091Z,22.10
2023-01-15T15:28:24.530Z,22.07
2023-01-15T15:30:53.292Z,21.97
2023-01-15T15:33:23.200Z,22.07
2023-01-15T15:35:53.613Z,21.97
2023-01-15T15:38:22.267Z,21.93
2023-01-15T15:40:52.917Z,21.90
2023-01-15T15:43:27.403Z,21.89
2023-01-15T15:45:56.761Z,21.86
2023-01-15T15:48:30.813Z,21.97
2023-01-15T15:50:58.392Z,22.05
2023-01-15T15:53:25.469Z,22.15
2023-01-15T15:55:54.586Z,22.53
2023-01-15T15:58:27.556Z,22.92
2023-01-15T16:00:54.758Z,23.36
2023-01-15T16:03:24.363Z,23.57
2023-01-15T16:05:55.983Z,23.61
2023-01-15T16:08:23.349Z,23.70
2023-01-15T16:10:53.252Z,23.63
2023-01-15T16:13:27.383Z,23.60
2023-01-15T16:15:56.349Z,23.59
2023-01-15T16:18:26.619Z,23.59
2023-01-15T16:20:54.250Z,23.48
2023-01-15T16:23:23.899Z,23.39
2023-01-15T16:26:01.119Z,23.28
2023-01-15T16:28:36.203Z,23.17
2023-01-15T16:31:03.642Z,23.20
2023-01-15T16:33:31.322Z,23.13
2023-01-15T16:35:59.459Z,23.16
2023-01-15T16:38:26.908Z,23.10
2023-01-15T16:40:54.068Z,22.99
2023-01-15T16:43:23.233Z,23.14
2023-01-15T16:46:01.957Z,23.07
2023-01-15T16:48:31.086Z,23.05
2023-01-15T16:50:58.194Z,23.04
2023-01-15T16:53:32.345Z,22.97
2023-01-15T16:55:59.372Z,22.93
2023-01-15T16:58:35.484Z,22.87
2023-01-15T17:01:25.155Z,22.76
2023-01-15T17:03:52.755Z,22.73
2023-01-15T17:06:24.028Z,22.72
2023-01-15T17:08:53.049Z,22.65
2023-01-15T17:11:22.541Z,22.67
2023-01-15T17:13:50.350Z,22.66
2023-01-15T17:16:20.896Z,22.59
2023-01-15T17:18:49.365Z,22.49
2023-01-15T17:21:19.004Z,22.50
2023-01-15T17:23:46.375Z,22.55
2023-01-15T17:26:17.260Z,22.06
2023-01-15T17:28:44.437Z,22.54
2023-01-15T17:31:24.816Z,22.51
2023-01-15T17:33:52.599Z,22.53
2023-01-15T17:36:20.081Z,22.57
2023-01-15T17:38:47.448Z,22.59
2023-01-15T17:41:17.040Z,22.57
2023-01-15T17:43:44.139Z,22.51
2023-01-15T17:46:11.961Z,22.47
2023-01-15T17:48:40.629Z,22.23
2023-01-15T17:51:12.751Z,22.49
2023-01-15T17:53:40.182Z,22.48
2023-01-15T17:56:08.200Z,22.41
2023-01-15T17:58:35.516Z,22.50
2023-01-15T18:01:10.623Z,22.47
2023-01-15T18:03:43.187Z,22.49
2023-01-15T18:06:14.025Z,22.54
2023-01-15T18:08:43.174Z,22.41
2023-01-15T18:11:10.583Z,22.58
2023-01-15T18:13:37.835Z,22.59
2023-01-15T18:16:05.163Z,22.56
2023-01-15T18:18:32.228Z,22.60
2023-01-15T18:21:00.976Z,22.66
2023-01-15T18:23:28.236Z,22.69
2023-01-15T18:25:55.347Z,22.70
2023-01-15T18:28:22.457Z,22.71
2023-01-15T18:30:49.595Z,22.73
2023-01-15T18:33:16.720Z,22.83
2023-01-15T18:35:43.811Z,22.96
2023-01-15T18:38:12.250Z,23.05
2023-01-15T18:40:39.335Z,23.04
2023-01-15T18:43:06.545Z,23.04
2023-01-15T18:45:33.695Z,23.13
2023-01-15T18:48:00.932Z,23.24
2023-01-15T18:50:28.062Z,23.37
2023-01-15T18:52:55.165Z,23.35
2023-01-15T18:55:24.981Z,23.28
2023-01-15T18:57:52.342Z,23.26
2023-01-15T19:00:20.682Z,23.28
2023-01-15T19:02:48.164Z,23.27
2023-01-15T19:05:16.133Z,23.31
2023-01-15T19:07:43.725Z,23.32
2023-01-15T19:10:11.995Z,23.27
2023-01-15T19:12:40.654Z,23.29
2023-01-15T19:15:11.051Z,23.26
2023-01-15T19:17:38.137Z,23.17
2023-01-15T19:20:07.632Z,23.19
2023-01-15T19:22:34.768Z,23.15
2023-01-15T19:25:02.048Z,23.16
2023-01-15T19:27:29.146Z,23.13
2023-01-15T19:29:57.564Z,23.04
2023-01-15T19:32:24.699Z,23.07
2023-01-15T19:34:51.773Z,23.05
2023-01-15T19:37:18.868Z,23.07
2023-01-15T19:39:45.929Z,23.06
2023-01-15T19:42:13.315Z,23.08
2023-01-15T19:44:40.754Z,23.15
2023-01-15T19:47:11.993Z,23.23
2023-01-15T19:49:39.113Z,23.26
2023-01-15T19:52:06.303Z,23.14
2023-01-15T19:54:33.367Z,23.14
2023-01-15T19:57:00.433Z,23.10
2023-01-15T19:59:27.545Z,23.20
2023-01-15T20:01:54.699Z,23.16
2023-01-15T20:04:23.156Z,23.17
2023-01-15T20:06:50.830Z,23.18
2023-01-15T20:09:18.765Z,23.33
2023-01-15T20:11:45.877Z,23.32
2023-01-15T20:14:12.989Z,23.22
2023-01-15T20:16:40.106Z,23.19
2023-01-15T20:19:07.238Z,23.14
2023-01-15T20:21:35.659Z,23.17
2023-01-15T20:24:02.783Z,23.18
2023-01-15T20:26:29.881Z,23.20
2023-01-15T20:28:56.984Z,23.15
2023-01-15T20:31:24.094Z,23.05
2023-01-15T20:33:51.194Z,22.99
2023-01-15T20:36:18.285Z,22.95
2023-01-15T20:38:46.709Z,22.97
2023-01-15T20:41:13.824Z,22.88
2023-01-15T20:43:40.917Z,22.89
2023-01-15T20:46:10.509Z,22.89
2023-01-15T20:48:37.854Z,22.92
2023-01-15T20:51:11.032Z,22.90
2023-01-15T20:53:38.227Z,22.86
2023-01-15T20:56:12.961Z,22.75
2023-01-15T20:58:40.207Z,22.80
2023-01-15T21:01:09.085Z,22.79
2023-01-15T21:03:36.786Z,22.74
2023-01-15T21:06:05.089Z,22.66
2023-01-15T21:08:32.474Z,22.72
2023-01-15T21:11:00.195Z,22.65
2023-01-15T21:13:29.189Z,22.58
2023-01-15T21:15:57.823Z,22.51
2023-01-15T21:18:25.572Z,22.45
2023-01-15T21:20:52.702Z,22.49
2023-01-15T21:23:19.789Z,22.50
2023-01-15T21:25:47.225Z,22.47
2023-01-15T21:28:14.836Z,22.45
2023-01-15T21:30:43.571Z,22.44
2023-01-15T21:33:10.825Z,22.46
2023-01-15T21:35:38.834Z,22.49
2023-01-15T21:38:06.284Z,22.55
2023-01-15T21:40:33.423Z,22.55
2023-01-15T21:43:00.513Z,22.56
2023-01-15T21:45:27.615Z,22.52
2023-01-15T21:47:56.093Z,22.48
2023-01-15T21:50:23.187Z,22.50
2023-01-15T21:52:50.282Z,22.46
2023-01-15T21:55:17.422Z,22.47
2023-01-15T21:57:44.557Z,22.46
2023-01-15T22:00:12.450Z,22.42
2023-01-15T22:02:39.627Z,22.41
2023-01-15T22:05:08.978Z,22.37
2023-01-15T22:07:36.087Z,22.29
2023-01-15T22:10:03.605Z,22.31
2023-01-15T22:12:30.723Z,22.29
2023-01-15T22:14:57.837Z,22.31
2023-01-15T22:17:24.994Z,22.30
2023-01-15T22:19:52.071Z,22.28
2023-01-15T22:22:20.476Z,22.32
2023-01-15T22:24:47.587Z,22.32
2023-01-15T22:27:16.098Z,22.27
2023-01-15T22:29:43.594Z,22.38
2023-01-15T22:32:12.357Z,22.34
2023-01-15T22:34:39.661Z,22.33
2023-01-15T22:37:06.752Z,22.34
2023-01-15T22:39:35.195Z,22.36
2023-01-15T22:42:02.273Z,22.32
2023-01-15T22:44:30.108Z,22.32
2023-01-15T22:46:57.298Z,22.27
2023-01-15T22:49:24.873Z,22.24
2023-01-15T22:51:52.229Z,22.20
2023-01-15T22:54:19.721Z,22.19
2023-01-15T22:56:48.175Z,22.13
2023-01-15T22:59:16.112Z,22.12
2023-01-15T23:01:43.768Z,22.10
2023-01-15T23:04:13.384Z,22.10
2023-01-15T23:06:40.648Z,22.07
2023-01-15T23:09:08.935Z,22.08
2023-01-15T23:11:36.179Z,22.09
2023-01-15T23:14:04.706Z,22.15
2023-01-15T23:16:31.803Z,22.16
2023-01-15T23:18:59.059Z,22.17
2023-01-15T23:21:26.573Z,22.15
2023-01-15T23:23:55.042Z,22.14
2023-01-15T23:26:23.066Z,22.15
2023-01-15T23:28:50.235Z,22.10
2023-01-15T23:31:19.610Z,22.14
2023-01-15T23:33:47.300Z,22.11
2023-01-15T23:36:14.418Z,22.07
2023-01-15T23:38:42.881Z,22.10
2023-01-15T23:41:12.493Z,22.07
2023-01-15T23:43:39.806Z,21.96
2023-01-15T23:46:13.413Z,21.99
2023-01-15T23:48:41.873Z,21.96
2023-01-15T23:51:08.959Z,21.92
2023-01-15T23:53:36.220Z,21.55
2023-01-15T23:56:05.857Z,21.94
2023-01-15T23:58:33.505Z,21.94
